sensor_id;sensor_type;location;lat;lon;timestamp;P1;durP1;ratioP1;P2;durP2;ratioP2
19609;SDS011;9952;47.122;-1.638;2023-04-24T00:02:15;11.97;;;3.90;;
19609;SDS011;9952;47.122;-1.638;2023-04-24T00:06:56;11.03;;;4.60;;
19609;SDS011;9952;47.122;-1.638;2023-04-24T00:11:39;9.37;;;4.67;;
19609;SDS011;9952;47.122;-1.638;2023-04-24T00:16:21;9.80;;;4.43;;
19609;SDS011;9952;47.122;-1.638;2023-04-24T00:21:02;16.20;;;4.30;;
19609;SDS011;9952;47.122;-1.638;2023-04-24T00:25:43;8.50;;;4.20;;
19609;SDS011;9952;47.122;-1.638;2023-04-24T00:30:24;15.47;;;4.93;;
19609;SDS011;9952;47.122;-1.638;2023-04-24T00:35:05;15.93;;;4.63;;
19609;SDS011;9952;47.122;-1.638;2023-04-24T00:39:46;12.17;;;4.83;;
19609;SDS011;9952;47.122;-1.638;2023-04-24T00:44:27;11.00;;;4.50;;
19609;SDS011;9952;47.122;-1.638;2023-04-24T00:49:08;11.50;;;4.47;;
19609;SDS011;9952;47.122;-1.638;2023-04-24T00:53:49;11.27;;;4.63;;
19609;SDS011;9952;47.122;-1.638;2023-04-24T00:58:30;12.50;;;4.20;;
19609;SDS011;9952;47.122;-1.638;2023-04-24T01:03:12;16.77;;;4.27;;
19609;SDS011;9952;47.122;-1.638;2023-04-24T01:07:54;15.50;;;5.17;;
19609;SDS011;9952;47.122;-1.638;2023-04-24T01:12:35;12.03;;;4.53;;
19609;SDS011;9952;47.122;-1.638;2023-04-24T01:17:15;9.60;;;4.80;;
19609;SDS011;9952;47.122;-1.638;2023-04-24T01:21:57;16.00;;;5.10;;
19609;SDS011;9952;47.122;-1.638;2023-04-24T01:26:41;13.47;;;5.87;;
19609;SDS011;9952;47.122;-1.638;2023-04-24T01:31:22;10.97;;;5.40;;
19609;SDS011;9952;47.122;-1.638;2023-04-24T01:36:03;10.00;;;5.37;;
19609;SDS011;9952;47.122;-1.638;2023-04-24T01:40:44;14.93;;;4.47;;
19609;SDS011;9952;47.122;-1.638;2023-04-24T01:45:25;9.77;;;4.20;;
19609;SDS011;9952;47.122;-1.638;2023-04-24T01:50:06;12.67;;;3.53;;
19609;SDS011;9952;47.122;-1.638;2023-04-24T01:54:47;10.13;;;3.70;;
19609;SDS011;9952;47.122;-1.638;2023-04-24T01:59:28;12.97;;;3.27;;
19609;SDS011;9952;47.122;-1.638;2023-04-24T02:04:11;13.10;;;3.30;;
19609;SDS011;9952;47.122;-1.638;2023-04-24T02:08:51;11.57;;;3.10;;
19609;SDS011;9952;47.122;-1.638;2023-04-24T02:13:32;8.70;;;2.70;;
19609;SDS011;9952;47.122;-1.638;2023-04-24T02:18:13;10.90;;;3.33;;
19609;SDS011;9952;47.122;-1.638;2023-04-24T02:22:54;15.37;;;3.13;;
19609;SDS011;9952;47.122;-1.638;2023-04-24T02:27:35;8.37;;;2.80;;
19609;SDS011;9952;47.122;-1.638;2023-04-24T02:32:15;7.43;;;2.47;;
19609;SDS011;9952;47.122;-1.638;2023-04-24T02:36:56;12.37;;;3.27;;
19609;SDS011;9952;47.122;-1.638;2023-04-24T02:41:37;7.90;;;2.70;;
19609;SDS011;9952;47.122;-1.638;2023-04-24T02:46:17;10.40;;;3.13;;
19609;SDS011;9952;47.122;-1.638;2023-04-24T02:50:58;14.27;;;2.70;;
19609;SDS011;9952;47.122;-1.638;2023-04-24T02:55:39;10.80;;;2.67;;
19609;SDS011;9952;47.122;-1.638;2023-04-24T03:00:20;11.63;;;2.50;;
19609;SDS011;9952;47.122;-1.638;2023-04-24T03:05:01;12.73;;;2.50;;
19609;SDS011;9952;47.122;-1.638;2023-04-24T03:09:42;12.40;;;2.77;;
19609;SDS011;9952;47.122;-1.638;2023-04-24T03:14:23;11.47;;;2.80;;
19609;SDS011;9952;47.122;-1.638;2023-04-24T03:19:03;10.77;;;3.63;;
19609;SDS011;9952;47.122;-1.638;2023-04-24T03:23:44;11.10;;;2.73;;
19609;SDS011;9952;47.122;-1.638;2023-04-24T03:28:25;6.63;;;2.40;;
19609;SDS011;9952;47.122;-1.638;2023-04-24T03:33:06;12.33;;;3.03;;
19609;SDS011;9952;47.122;-1.638;2023-04-24T03:37:47;10.97;;;2.57;;
19609;SDS011;9952;47.122;-1.638;2023-04-24T03:42:28;11.37;;;3.57;;
19609;SDS011;9952;47.122;-1.638;2023-04-24T03:47:08;11.30;;;3.00;;
19609;SDS011;9952;47.122;-1.638;2023-04-24T03:51:49;11.13;;;2.97;;
19609;SDS011;9952;47.122;-1.638;2023-04-24T03:56:30;12.73;;;3.53;;
19609;SDS011;9952;47.122;-1.638;2023-04-24T04:06:32;13.43;;;3.63;;
19609;SDS011;9952;47.122;-1.638;2023-04-24T04:11:13;15.87;;;3.33;;
19609;SDS011;9952;47.122;-1.638;2023-04-24T04:15:54;11.23;;;3.27;;
19609;SDS011;9952;47.122;-1.638;2023-04-24T04:20:34;12.57;;;3.77;;
19609;SDS011;9952;47.122;-1.638;2023-04-24T04:25:15;10.33;;;3.53;;
19609;SDS011;9952;47.122;-1.638;2023-04-24T04:29:59;9.47;;;3.17;;
19609;SDS011;9952;47.122;-1.638;2023-04-24T04:34:44;8.77;;;3.10;;
19609;SDS011;9952;47.122;-1.638;2023-04-24T04:39:25;15.07;;;3.03;;
19609;SDS011;9952;47.122;-1.638;2023-04-24T04:44:08;16.27;;;3.23;;
19609;SDS011;9952;47.122;-1.638;2023-04-24T04:48:49;13.67;;;2.60;;
19609;SDS011;9952;47.122;-1.638;2023-04-24T04:53:30;11.97;;;2.90;;
19609;SDS011;9952;47.122;-1.638;2023-04-24T04:58:11;15.27;;;3.83;;
19609;SDS011;9952;47.122;-1.638;2023-04-24T05:02:52;13.77;;;2.90;;
19609;SDS011;9952;47.122;-1.638;2023-04-24T05:07:32;7.37;;;2.13;;
19609;SDS011;9952;47.122;-1.638;2023-04-24T05:17:19;9.87;;;3.07;;
19609;SDS011;9952;47.122;-1.638;2023-04-24T05:22:00;9.13;;;2.83;;
19609;SDS011;9952;47.122;-1.638;2023-04-24T05:26:43;13.00;;;3.33;;
19609;SDS011;9952;47.122;-1.638;2023-04-24T05:31:24;15.60;;;2.90;;
19609;SDS011;9952;47.122;-1.638;2023-04-24T05:36:05;6.10;;;3.13;;
19609;SDS011;9952;47.122;-1.638;2023-04-24T05:40:46;11.70;;;2.70;;
19609;SDS011;9952;47.122;-1.638;2023-04-24T05:45:30;9.00;;;3.20;;
19609;SDS011;9952;47.122;-1.638;2023-04-24T05:50:11;9.30;;;2.77;;
19609;SDS011;9952;47.122;-1.638;2023-04-24T05:54:52;8.97;;;2.83;;
19609;SDS011;9952;47.122;-1.638;2023-04-24T05:59:34;9.13;;;3.43;;
19609;SDS011;9952;47.122;-1.638;2023-04-24T06:04:16;11.20;;;3.17;;
19609;SDS011;9952;47.122;-1.638;2023-04-24T06:14:15;8.90;;;2.80;;
19609;SDS011;9952;47.122;-1.638;2023-04-24T06:18:55;7.60;;;2.63;;
19609;SDS011;9952;47.122;-1.638;2023-04-24T06:23:36;9.93;;;2.60;;
19609;SDS011;9952;47.122;-1.638;2023-04-24T06:28:17;3.90;;;2.20;;
19609;SDS011;9952;47.122;-1.638;2023-04-24T06:32:58;9.77;;;2.80;;
19609;SDS011;9952;47.122;-1.638;2023-04-24T06:37:39;7.90;;;2.50;;
19609;SDS011;9952;47.122;-1.638;2023-04-24T06:42:21;18.63;;;3.20;;
19609;SDS011;9952;47.122;-1.638;2023-04-24T06:47:02;11.03;;;3.13;;
19609;SDS011;9952;47.122;-1.638;2023-04-24T06:51:43;10.63;;;3.30;;
19609;SDS011;9952;47.122;-1.638;2023-04-24T06:56:24;11.93;;;3.67;;
19609;SDS011;9952;47.122;-1.638;2023-04-24T07:06:09;11.47;;;3.53;;
19609;SDS011;9952;47.122;-1.638;2023-04-24T07:10:59;12.10;;;3.70;;
19609;SDS011;9952;47.122;-1.638;2023-04-24T07:15:40;13.13;;;2.93;;
19609;SDS011;9952;47.122;-1.638;2023-04-24T07:20:21;10.53;;;2.83;;
19609;SDS011;9952;47.122;-1.638;2023-04-24T07:25:02;10.53;;;3.60;;
19609;SDS011;9952;47.122;-1.638;2023-04-24T07:35:02;13.50;;;3.30;;
19609;SDS011;9952;47.122;-1.638;2023-04-24T07:39:43;20.83;;;3.03;;
19609;SDS011;9952;47.122;-1.638;2023-04-24T07:44:24;11.10;;;3.13;;
19609;SDS011;9952;47.122;-1.638;2023-04-24T07:49:05;8.17;;;3.53;;
19609;SDS011;9952;47.122;-1.638;2023-04-24T07:58:57;11.33;;;3.27;;
19609;SDS011;9952;47.122;-1.638;2023-04-24T08:03:38;13.77;;;3.77;;
19609;SDS011;9952;47.122;-1.638;2023-04-24T08:08:21;13.47;;;3.50;;
19609;SDS011;9952;47.122;-1.638;2023-04-24T08:18:13;15.40;;;2.90;;
19609;SDS011;9952;47.122;-1.638;2023-04-24T08:22:55;13.70;;;2.90;;
19609;SDS011;9952;47.122;-1.638;2023-04-24T08:27:51;10.73;;;3.27;;
19609;SDS011;9952;47.122;-1.638;2023-04-24T08:32:32;12.37;;;2.70;;
19609;SDS011;9952;47.122;-1.638;2023-04-24T08:37:13;10.87;;;2.93;;
19609;SDS011;9952;47.122;-1.638;2023-04-24T08:41:55;9.07;;;2.60;;
19609;SDS011;9952;47.122;-1.638;2023-04-24T08:51:44;8.77;;;2.30;;
19609;SDS011;9952;47.122;-1.638;2023-04-24T08:56:27;9.73;;;2.13;;
19609;SDS011;9952;47.122;-1.638;2023-04-24T09:01:16;11.07;;;2.50;;
19609;SDS011;9952;47.122;-1.638;2023-04-24T09:05:59;8.77;;;2.70;;
19609;SDS011;9952;47.122;-1.638;2023-04-24T09:10:41;4.67;;;1.73;;
19609;SDS011;9952;47.122;-1.638;2023-04-24T09:15:22;9.37;;;2.20;;
19609;SDS011;9952;47.122;-1.638;2023-04-24T09:20:04;5.87;;;1.50;;
19609;SDS011;9952;47.122;-1.638;2023-04-24T09:24:46;3.73;;;1.27;;
19609;SDS011;9952;47.122;-1.638;2023-04-24T09:29:27;9.53;;;2.30;;
19609;SDS011;9952;47.122;-1.638;2023-04-24T09:39:44;7.00;;;1.70;;
19609;SDS011;9952;47.122;-1.638;2023-04-24T09:44:26;6.07;;;1.87;;
19609;SDS011;9952;47.122;-1.638;2023-04-24T09:49:14;10.57;;;1.70;;
19609;SDS011;9952;47.122;-1.638;2023-04-24T09:53:56;10.53;;;1.73;;
19609;SDS011;9952;47.122;-1.638;2023-04-24T09:58:37;7.87;;;1.80;;
19609;SDS011;9952;47.122;-1.638;2023-04-24T10:03:19;11.10;;;2.27;;
19609;SDS011;9952;47.122;-1.638;2023-04-24T10:08:04;10.63;;;2.00;;
19609;SDS011;9952;47.122;-1.638;2023-04-24T10:12:50;8.47;;;1.73;;
19609;SDS011;9952;47.122;-1.638;2023-04-24T10:17:31;3.80;;;1.30;;
19609;SDS011;9952;47.122;-1.638;2023-04-24T10:22:14;7.40;;;1.57;;
19609;SDS011;9952;47.122;-1.638;2023-04-24T10:26:57;7.13;;;2.03;;
19609;SDS011;9952;47.122;-1.638;2023-04-24T10:31:41;12.43;;;1.80;;
19609;SDS011;9952;47.122;-1.638;2023-04-24T10:36:34;14.13;;;2.27;;
19609;SDS011;9952;47.122;-1.638;2023-04-24T10:41:19;9.10;;;2.33;;
19609;SDS011;9952;47.122;-1.638;2023-04-24T10:46:04;9.47;;;2.33;;
19609;SDS011;9952;47.122;-1.638;2023-04-24T10:50:46;9.83;;;2.27;;
19609;SDS011;9952;47.122;-1.638;2023-04-24T10:55:42;11.17;;;2.20;;
19609;SDS011;9952;47.122;-1.638;2023-04-24T11:00:25;8.20;;;1.63;;
19609;SDS011;9952;47.122;-1.638;2023-04-24T11:05:07;13.43;;;2.17;;
19609;SDS011;9952;47.122;-1.638;2023-04-24T11:09:48;8.43;;;1.73;;
19609;SDS011;9952;47.122;-1.638;2023-04-24T11:19:38;7.77;;;1.93;;
19609;SDS011;9952;47.122;-1.638;2023-04-24T11:29:07;8.90;;;2.20;;
19609;SDS011;9952;47.122;-1.638;2023-04-24T11:33:48;7.07;;;2.00;;
19609;SDS011;9952;47.122;-1.638;2023-04-24T11:38:29;9.00;;;2.37;;
19609;SDS011;9952;47.122;-1.638;2023-04-24T11:43:10;9.43;;;2.37;;
19609;SDS011;9952;47.122;-1.638;2023-04-24T11:47:51;9.27;;;2.10;;
19609;SDS011;9952;47.122;-1.638;2023-04-24T11:52:32;13.40;;;2.50;;
19609;SDS011;9952;47.122;-1.638;2023-04-24T11:57:18;14.13;;;2.67;;
19609;SDS011;9952;47.122;-1.638;2023-04-24T12:02:01;9.70;;;2.30;;
19609;SDS011;9952;47.122;-1.638;2023-04-24T12:07:15;8.40;;;2.20;;
19609;SDS011;9952;47.122;-1.638;2023-04-24T12:11:53;11.90;;;2.47;;
19609;SDS011;9952;47.122;-1.638;2023-04-24T12:16:37;11.50;;;2.50;;
19609;SDS011;9952;47.122;-1.638;2023-04-24T12:21:19;10.40;;;1.90;;
19609;SDS011;9952;47.122;-1.638;2023-04-24T12:26:06;6.73;;;2.10;;
19609;SDS011;9952;47.122;-1.638;2023-04-24T12:30:47;7.53;;;2.43;;
19609;SDS011;9952;47.122;-1.638;2023-04-24T12:35:29;9.90;;;2.70;;
19609;SDS011;9952;47.122;-1.638;2023-04-24T12:40:16;9.13;;;2.10;;
19609;SDS011;9952;47.122;-1.638;2023-04-24T12:44:59;12.60;;;3.10;;
19609;SDS011;9952;47.122;-1.638;2023-04-24T12:49:42;11.27;;;3.23;;
19609;SDS011;9952;47.122;-1.638;2023-04-24T12:54:24;8.00;;;2.27;;
19609;SDS011;9952;47.122;-1.638;2023-04-24T12:59:05;10.83;;;2.50;;
19609;SDS011;9952;47.122;-1.638;2023-04-24T13:03:45;8.87;;;2.97;;
19609;SDS011;9952;47.122;-1.638;2023-04-24T13:08:26;10.23;;;2.57;;
19609;SDS011;9952;47.122;-1.638;2023-04-24T13:13:07;6.00;;;1.80;;
19609;SDS011;9952;47.122;-1.638;2023-04-24T13:17:49;4.83;;;1.97;;
19609;SDS011;9952;47.122;-1.638;2023-04-24T13:22:30;6.70;;;2.10;;
19609;SDS011;9952;47.122;-1.638;2023-04-24T13:27:11;10.00;;;2.00;;
19609;SDS011;9952;47.122;-1.638;2023-04-24T13:31:52;9.30;;;1.97;;
19609;SDS011;9952;47.122;-1.638;2023-04-24T13:36:36;8.33;;;1.87;;
19609;SDS011;9952;47.122;-1.638;2023-04-24T13:41:17;7.00;;;1.90;;
19609;SDS011;9952;47.122;-1.638;2023-04-24T13:45:58;8.67;;;2.10;;
19609;SDS011;9952;47.122;-1.638;2023-04-24T13:50:42;7.27;;;2.03;;
19609;SDS011;9952;47.122;-1.638;2023-04-24T13:55:23;10.03;;;2.10;;
19609;SDS011;9952;47.122;-1.638;2023-04-24T14:00:03;6.87;;;1.90;;
19609;SDS011;9952;47.122;-1.638;2023-04-24T14:04:46;9.77;;;2.17;;
19609;SDS011;9952;47.122;-1.638;2023-04-24T14:09:28;8.87;;;2.20;;
19609;SDS011;9952;47.122;-1.638;2023-04-24T14:14:09;9.67;;;2.30;;
19609;SDS011;9952;47.122;-1.638;2023-04-24T14:18:50;9.77;;;1.93;;
19609;SDS011;9952;47.122;-1.638;2023-04-24T14:23:31;6.97;;;1.60;;
19609;SDS011;9952;47.122;-1.638;2023-04-24T14:28:12;5.17;;;1.63;;
19609;SDS011;9952;47.122;-1.638;2023-04-24T14:32:53;11.10;;;2.40;;
19609;SDS011;9952;47.122;-1.638;2023-04-24T14:37:33;8.47;;;2.17;;
19609;SDS011;9952;47.122;-1.638;2023-04-24T14:42:15;6.90;;;1.40;;
19609;SDS011;9952;47.122;-1.638;2023-04-24T14:46:57;8.70;;;1.63;;
19609;SDS011;9952;47.122;-1.638;2023-04-24T14:51:42;8.40;;;2.07;;
19609;SDS011;9952;47.122;-1.638;2023-04-24T14:56:23;6.13;;;2.37;;
19609;SDS011;9952;47.122;-1.638;2023-04-24T15:01:04;6.63;;;1.57;;
19609;SDS011;9952;47.122;-1.638;2023-04-24T15:05:45;7.23;;;1.50;;
19609;SDS011;9952;47.122;-1.638;2023-04-24T15:10:26;4.67;;;1.33;;
19609;SDS011;9952;47.122;-1.638;2023-04-24T15:15:07;6.63;;;1.73;;
19609;SDS011;9952;47.122;-1.638;2023-04-24T15:19:48;5.70;;;1.77;;
19609;SDS011;9952;47.122;-1.638;2023-04-24T15:24:29;7.57;;;1.73;;
19609;SDS011;9952;47.122;-1.638;2023-04-24T15:29:10;8.20;;;1.63;;
19609;SDS011;9952;47.122;-1.638;2023-04-24T15:33:51;8.60;;;1.90;;
19609;SDS011;9952;47.122;-1.638;2023-04-24T15:38:31;4.03;;;1.10;;
19609;SDS011;9952;47.122;-1.638;2023-04-24T15:43:12;7.47;;;1.80;;
19609;SDS011;9952;47.122;-1.638;2023-04-24T15:47:53;5.97;;;1.60;;
19609;SDS011;9952;47.122;-1.638;2023-04-24T15:52:34;8.93;;;1.83;;
19609;SDS011;9952;47.122;-1.638;2023-04-24T15:57:15;7.80;;;2.00;;
19609;SDS011;9952;47.122;-1.638;2023-04-24T16:01:56;6.57;;;1.40;;
19609;SDS011;9952;47.122;-1.638;2023-04-24T16:06:37;9.67;;;1.63;;
19609;SDS011;9952;47.122;-1.638;2023-04-24T16:11:17;6.40;;;1.20;;
19609;SDS011;9952;47.122;-1.638;2023-04-24T16:15:58;5.10;;;1.40;;
19609;SDS011;9952;47.122;-1.638;2023-04-24T16:20:39;6.90;;;1.50;;
19609;SDS011;9952;47.122;-1.638;2023-04-24T16:25:20;5.63;;;1.53;;
19609;SDS011;9952;47.122;-1.638;2023-04-24T16:30:01;7.83;;;1.37;;
19609;SDS011;9952;47.122;-1.638;2023-04-24T16:34:42;5.43;;;2.47;;
19609;SDS011;9952;47.122;-1.638;2023-04-24T16:39:25;6.97;;;1.50;;
19609;SDS011;9952;47.122;-1.638;2023-04-24T16:44:06;8.57;;;1.70;;
19609;SDS011;9952;47.122;-1.638;2023-04-24T16:48:47;8.83;;;1.90;;
19609;SDS011;9952;47.122;-1.638;2023-04-24T16:53:29;4.17;;;1.60;;
19609;SDS011;9952;47.122;-1.638;2023-04-24T16:58:09;8.30;;;1.77;;
19609;SDS011;9952;47.122;-1.638;2023-04-24T17:02:50;7.37;;;1.80;;
19609;SDS011;9952;47.122;-1.638;2023-04-24T17:07:31;10.47;;;1.60;;
19609;SDS011;9952;47.122;-1.638;2023-04-24T17:12:12;8.47;;;2.23;;
19609;SDS011;9952;47.122;-1.638;2023-04-24T17:16:53;9.30;;;1.97;;
19609;SDS011;9952;47.122;-1.638;2023-04-24T17:21:33;7.30;;;1.83;;
19609;SDS011;9952;47.122;-1.638;2023-04-24T17:26:15;9.77;;;2.20;;
19609;SDS011;9952;47.122;-1.638;2023-04-24T17:30:56;8.83;;;2.03;;
19609;SDS011;9952;47.122;-1.638;2023-04-24T17:35:37;10.90;;;2.73;;
19609;SDS011;9952;47.122;-1.638;2023-04-24T17:40:18;10.27;;;1.80;;
19609;SDS011;9952;47.122;-1.638;2023-04-24T17:44:58;10.27;;;2.10;;
19609;SDS011;9952;47.122;-1.638;2023-04-24T17:49:39;7.80;;;1.90;;
19609;SDS011;9952;47.122;-1.638;2023-04-24T17:54:21;6.30;;;2.00;;
19609;SDS011;9952;47.122;-1.638;2023-04-24T17:59:02;8.87;;;2.17;;
19609;SDS011;9952;47.122;-1.638;2023-04-24T18:03:43;5.97;;;1.70;;
19609;SDS011;9952;47.122;-1.638;2023-04-24T18:08:24;8.53;;;2.53;;
19609;SDS011;9952;47.122;-1.638;2023-04-24T18:13:05;7.30;;;2.00;;
19609;SDS011;9952;47.122;-1.638;2023-04-24T18:17:46;29.00;;;15.57;;
19609;SDS011;9952;47.122;-1.638;2023-04-24T18:22:26;12.87;;;4.87;;
19609;SDS011;9952;47.122;-1.638;2023-04-24T18:27:08;329.60;;;115.27;;
19609;SDS011;9952;47.122;-1.638;2023-04-24T18:31:48;179.70;;;53.87;;
19609;SDS011;9952;47.122;-1.638;2023-04-24T18:36:29;225.47;;;59.67;;
19609;SDS011;9952;47.122;-1.638;2023-04-24T18:41:11;190.33;;;49.80;;
19609;SDS011;9952;47.122;-1.638;2023-04-24T18:45:53;118.67;;;49.17;;
19609;SDS011;9952;47.122;-1.638;2023-04-24T18:50:34;81.63;;;41.30;;
19609;SDS011;9952;47.122;-1.638;2023-04-24T18:55:14;35.70;;;16.20;;
19609;SDS011;9952;47.122;-1.638;2023-04-24T18:59:55;81.57;;;30.47;;
19609;SDS011;9952;47.122;-1.638;2023-04-24T19:04:36;55.43;;;31.27;;
19609;SDS011;9952;47.122;-1.638;2023-04-24T19:09:17;63.80;;;34.63;;
19609;SDS011;9952;47.122;-1.638;2023-04-24T19:13:57;14.17;;;6.93;;
19609;SDS011;9952;47.122;-1.638;2023-04-24T19:18:42;10.17;;;4.63;;
19609;SDS011;9952;47.122;-1.638;2023-04-24T19:23:22;10.50;;;2.50;;
19609;SDS011;9952;47.122;-1.638;2023-04-24T19:28:03;6.40;;;2.43;;
19609;SDS011;9952;47.122;-1.638;2023-04-24T19:32:44;10.17;;;2.37;;
19609;SDS011;9952;47.122;-1.638;2023-04-24T19:37:25;12.67;;;2.47;;
19609;SDS011;9952;47.122;-1.638;2023-04-24T19:42:06;8.77;;;2.07;;
19609;SDS011;9952;47.122;-1.638;2023-04-24T19:46:46;10.83;;;2.10;;
19609;SDS011;9952;47.122;-1.638;2023-04-24T19:51:27;6.13;;;2.30;;
19609;SDS011;9952;47.122;-1.638;2023-04-24T19:56:08;8.47;;;2.10;;
19609;SDS011;9952;47.122;-1.638;2023-04-24T20:00:49;11.33;;;2.83;;
19609;SDS011;9952;47.122;-1.638;2023-04-24T20:05:30;7.60;;;2.40;;
19609;SDS011;9952;47.122;-1.638;2023-04-24T20:10:11;6.67;;;1.87;;
19609;SDS011;9952;47.122;-1.638;2023-04-24T20:14:51;7.63;;;1.73;;
19609;SDS011;9952;47.122;-1.638;2023-04-24T20:19:32;5.63;;;1.83;;
19609;SDS011;9952;47.122;-1.638;2023-04-24T20:24:14;9.60;;;2.70;;
19609;SDS011;9952;47.122;-1.638;2023-04-24T20:28:55;9.23;;;2.10;;
19609;SDS011;9952;47.122;-1.638;2023-04-24T20:33:35;9.77;;;3.13;;
19609;SDS011;9952;47.122;-1.638;2023-04-24T20:38:20;6.00;;;2.10;;
19609;SDS011;9952;47.122;-1.638;2023-04-24T20:43:01;9.83;;;2.37;;
19609;SDS011;9952;47.122;-1.638;2023-04-24T20:47:43;6.07;;;2.00;;
19609;SDS011;9952;47.122;-1.638;2023-04-24T20:52:24;6.73;;;1.97;;
19609;SDS011;9952;47.122;-1.638;2023-04-24T20:57:05;7.70;;;2.47;;
19609;SDS011;9952;47.122;-1.638;2023-04-24T21:01:46;9.57;;;1.93;;
19609;SDS011;9952;47.122;-1.638;2023-04-24T21:06:29;8.03;;;2.50;;
19609;SDS011;9952;47.122;-1.638;2023-04-24T21:11:11;15.17;;;3.20;;
19609;SDS011;9952;47.122;-1.638;2023-04-24T21:15:51;8.03;;;2.67;;
19609;SDS011;9952;47.122;-1.638;2023-04-24T21:20:32;9.00;;;2.63;;
19609;SDS011;9952;47.122;-1.638;2023-04-24T21:25:13;6.27;;;2.20;;
19609;SDS011;9952;47.122;-1.638;2023-04-24T21:29:54;13.40;;;2.80;;
19609;SDS011;9952;47.122;-1.638;2023-04-24T21:34:35;10.03;;;2.60;;
19609;SDS011;9952;47.122;-1.638;2023-04-24T21:39:16;8.83;;;2.50;;
19609;SDS011;9952;47.122;-1.638;2023-04-24T21:43:57;7.13;;;2.90;;
19609;SDS011;9952;47.122;-1.638;2023-04-24T21:48:38;10.60;;;2.77;;
19609;SDS011;9952;47.122;-1.638;2023-04-24T21:53:19;8.33;;;2.50;;
19609;SDS011;9952;47.122;-1.638;2023-04-24T21:57:59;7.37;;;2.30;;
19609;SDS011;9952;47.122;-1.638;2023-04-24T22:02:40;8.27;;;2.50;;
19609;SDS011;9952;47.122;-1.638;2023-04-24T22:07:21;8.33;;;2.60;;
19609;SDS011;9952;47.122;-1.638;2023-04-24T22:12:03;6.87;;;2.67;;
19609;SDS011;9952;47.122;-1.638;2023-04-24T22:16:44;13.00;;;2.57;;
19609;SDS011;9952;47.122;-1.638;2023-04-24T22:21:26;10.17;;;2.67;;
19609;SDS011;9952;47.122;-1.638;2023-04-24T22:26:07;6.67;;;2.23;;
19609;SDS011;9952;47.122;-1.638;2023-04-24T22:30:48;8.60;;;2.70;;
19609;SDS011;9952;47.122;-1.638;2023-04-24T22:35:29;8.07;;;2.53;;
19609;SDS011;9952;47.122;-1.638;2023-04-24T22:40:09;8.43;;;2.60;;
19609;SDS011;9952;47.122;-1.638;2023-04-24T22:44:50;5.23;;;2.50;;
19609;SDS011;9952;47.122;-1.638;2023-04-24T22:49:31;9.00;;;2.20;;
19609;SDS011;9952;47.122;-1.638;2023-04-24T22:54:13;5.90;;;2.67;;
19609;SDS011;9952;47.122;-1.638;2023-04-24T22:58:54;8.83;;;2.73;;
19609;SDS011;9952;47.122;-1.638;2023-04-24T23:03:36;13.73;;;2.53;;
19609;SDS011;9952;47.122;-1.638;2023-04-24T23:08:16;8.67;;;2.73;;
19609;SDS011;9952;47.122;-1.638;2023-04-24T23:12:57;10.57;;;2.73;;
19609;SDS011;9952;47.122;-1.638;2023-04-24T23:17:38;11.30;;;2.90;;
19609;SDS011;9952;47.122;-1.638;2023-04-24T23:22:19;6.80;;;2.60;;
19609;SDS011;9952;47.122;-1.638;2023-04-24T23:27:00;9.70;;;3.03;;
19609;SDS011;9952;47.122;-1.638;2023-04-24T23:31:41;9.37;;;2.87;;
19609;SDS011;9952;47.122;-1.638;2023-04-24T23:36:22;5.87;;;2.73;;
19609;SDS011;9952;47.122;-1.638;2023-04-24T23:41:02;13.17;;;2.73;;
19609;SDS011;9952;47.122;-1.638;2023-04-24T23:45:43;11.53;;;2.70;;
19609;SDS011;9952;47.122;-1.638;2023-04-24T23:50:24;16.27;;;3.10;;
19609;SDS011;9952;47.122;-1.638;2023-04-24T23:55:05;7.57;;;2.97;;
19609;SDS011;9952;47.122;-1.638;2023-04-24T23:59:48;8.33;;;2.87;;
